Time;durP1;ratioP1;P1;durP2;ratioP2;P2;SDS_P1;SDS_P2;PMS_P1;PMS_P2;Temp;Humidity;BMP_temperature;BMP_pressure;BME280_temperature;BME280_humidity;BME280_pressure;Samples;Min_cycle;Max_cycle;Signal;HPM_P1;HPM_P2
2021/04/13 00:01:13;;;;;;;5.05;3.40;;;;;;;;;;5049832;28;20488;-65
2021/04/13 00:03:42;;;;;;;6.35;3.15;;;;;;;;;;5050229;28;20526;-64
2021/04/13 00:06:10;;;;;;;5.22;3.22;;;;;;;;;;5050277;28;20041;-65
2021/04/13 00:08:39;;;;;;;6.40;3.75;;;;;;;;;;5052182;28;20119;-65
2021/04/13 00:11:07;;;;;;;4.45;3.60;;;;;;;;;;5038000;28;20103;-64
2021/04/13 00:13:37;;;;;;;5.07;3.60;;;;;;;;;;5050811;28;20049;-64
2021/04/13 00:16:07;;;;;;;6.90;3.50;;;;;;;;;;5050447;28;20487;-65
2021/04/13 00:18:35;;;;;;;5.85;3.45;;;;;;;;;;5050141;28;20076;-65
2021/04/13 00:21:05;;;;;;;5.18;3.47;;;;;;;;;;5044463;28;20084;-65
2021/04/13 00:23:33;;;;;;;4.70;2.97;;;;;;;;;;5051562;28;20136;-65
2021/04/13 00:26:01;;;;;;;5.80;3.75;;;;;;;;;;5056835;28;20058;-65
2021/04/13 00:28:29;;;;;;;6.47;4.03;;;;;;;;;;5060017;28;20168;-64
2021/04/13 00:30:58;;;;;;;4.93;3.55;;;;;;;;;;5049173;28;20128;-64
2021/04/13 00:33:28;;;;;;;5.60;3.80;;;;;;;;;;5050493;28;20148;-65
2021/04/13 00:36:09;;;;;;;5.22;3.50;;;;;;;;;;5048905;28;20056;-64
2021/04/13 00:38:37;;;;;;;4.90;3.15;;;;;;;;;;5050388;28;20095;-65
2021/04/13 00:41:13;;;;;;;7.38;3.92;;;;;;;;;;5050367;28;20481;-65
2021/04/13 00:43:45;;;;;;;5.05;3.58;;;;;;;;;;5049570;28;20489;-65
2021/04/13 00:46:13;;;;;;;6.68;3.33;;;;;;;;;;5047848;28;20045;-65
2021/04/13 00:48:44;;;;;;;6.38;3.70;;;;;;;;;;5049738;28;20412;-65
2021/04/13 00:51:16;;;;;;;8.38;3.88;;;;;;;;;;5043007;28;21247;-65
2021/04/13 00:53:44;;;;;;;7.20;3.67;;;;;;;;;;5051443;28;20704;-65
2021/04/13 00:56:14;;;;;;;6.70;4.00;;;;;;;;;;5045540;28;20132;-65
2021/04/13 00:58:43;;;;;;;6.35;3.83;;;;;;;;;;5047271;28;20064;-65
2021/04/13 01:01:12;;;;;;;6.53;3.60;;;;;;;;;;5049793;28;20774;-65
2021/04/13 01:03:47;;;;;;;6.10;3.75;;;;;;;;;;5083869;22;20501;-61
2021/04/13 01:06:19;;;;;;;5.63;3.60;;;;;;;;;;5034034;28;20136;-63
2021/04/13 01:08:47;;;;;;;5.32;3.67;;;;;;;;;;5044870;28;20064;-62
2021/04/13 01:11:17;;;;;;;5.65;3.53;;;;;;;;;;5046955;28;20128;-63
2021/04/13 01:13:47;;;;;;;7.00;3.53;;;;;;;;;;5048340;28;20080;-63
2021/04/13 01:16:14;;;;;;;5.50;3.50;;;;;;;;;;5046048;28;20685;-63
2021/04/13 01:18:43;;;;;;;5.28;3.13;;;;;;;;;;5044619;28;20044;-63
2021/04/13 01:21:21;;;;;;;4.10;3.40;;;;;;;;;;5046720;28;20049;-63
2021/04/13 01:23:52;;;;;;;8.98;3.60;;;;;;;;;;5045951;28;20116;-63
2021/04/13 01:26:20;;;;;;;6.72;3.53;;;;;;;;;;5045373;28;20145;-63
2021/04/13 01:28:50;;;;;;;7.57;3.67;;;;;;;;;;5045735;28;20049;-63
2021/04/13 01:31:42;;;;;;;9.80;4.35;;;;;;;;;;5047444;28;20045;-63
2021/04/13 01:34:08;;;;;;;7.25;4.50;;;;;;;;;;5048886;28;20128;-63
2021/04/13 01:36:41;;;;;;;6.80;3.78;;;;;;;;;;5048920;28;20053;-63
2021/04/13 01:39:12;;;;;;;6.97;4.05;;;;;;;;;;5044882;28;20129;-62
2021/04/13 01:41:46;;;;;;;6.07;4.32;;;;;;;;;;5049666;28;20292;-63
2021/04/13 01:44:17;;;;;;;6.47;4.15;;;;;;;;;;5049696;28;20091;-63
2021/04/13 01:46:45;;;;;;;4.60;3.55;;;;;;;;;;5047114;28;20125;-63
2021/04/13 01:49:12;;;;;;;5.45;3.97;;;;;;;;;;5040105;28;20534;-63
2021/04/13 01:51:40;;;;;;;7.45;3.72;;;;;;;;;;5049674;28;20064;-62
2021/04/13 01:54:13;;;;;;;6.57;4.07;;;;;;;;;;5044933;28;20049;-63
2021/04/13 01:56:46;;;;;;;6.18;4.22;;;;;;;;;;5046284;28;20084;-63
2021/04/13 01:59:16;;;;;;;12.38;5.20;;;;;;;;;;5048098;28;20049;-63
2021/04/13 02:01:45;;;;;;;7.07;4.47;;;;;;;;;;5043747;28;20132;-63
2021/04/13 02:04:17;;;;;;;5.32;4.10;;;;;;;;;;5046550;28;20056;-63
2021/04/13 02:06:49;;;;;;;6.82;4.30;;;;;;;;;;5047767;28;20041;-63
2021/04/13 02:09:26;;;;;;;6.28;4.47;;;;;;;;;;5038603;28;20412;-63
2021/04/13 02:11:56;;;;;;;7.38;4.10;;;;;;;;;;5049332;28;20053;-63
2021/04/13 02:14:25;;;;;;;7.38;4.45;;;;;;;;;;5049477;28;20135;-63
2021/04/13 02:16:54;;;;;;;9.18;4.30;;;;;;;;;;5035721;28;20123;-63
2021/04/13 02:19:23;;;;;;;9.85;5.07;;;;;;;;;;5048214;28;20076;-63
2021/04/13 02:21:52;;;;;;;6.55;4.90;;;;;;;;;;5044169;28;20140;-63
2021/04/13 02:24:21;;;;;;;7.25;4.53;;;;;;;;;;5043242;28;20625;-63
2021/04/13 02:26:50;;;;;;;7.50;4.97;;;;;;;;;;5050693;28;20049;-63
2021/04/13 02:29:18;;;;;;;6.80;4.53;;;;;;;;;;5052888;28;20111;-63
2021/04/13 02:31:49;;;;;;;11.00;4.78;;;;;;;;;;5051158;28;20079;-63
2021/04/13 02:34:18;;;;;;;6.72;4.35;;;;;;;;;;5051242;28;20049;-62
2021/04/13 02:36:46;;;;;;;7.50;4.57;;;;;;;;;;5052633;28;20173;-62
2021/04/13 02:39:16;;;;;;;6.78;4.40;;;;;;;;;;5051541;28;20103;-62
2021/04/13 02:41:48;;;;;;;7.50;5.00;;;;;;;;;;5053174;28;20160;-62
2021/04/13 02:44:18;;;;;;;6.57;4.78;;;;;;;;;;5052612;28;20041;-62
2021/04/13 02:46:46;;;;;;;8.00;4.63;;;;;;;;;;5052178;28;20045;-63
2021/04/13 02:49:15;;;;;;;9.18;4.63;;;;;;;;;;5047643;28;20257;-62
2021/04/13 02:51:48;;;;;;;10.30;4.88;;;;;;;;;;5052384;28;20136;-62
2021/04/13 02:54:18;;;;;;;6.47;4.15;;;;;;;;;;5048436;28;20080;-62
2021/04/13 02:56:48;;;;;;;6.80;4.13;;;;;;;;;;5049432;28;20091;-62
2021/04/13 02:59:21;;;;;;;6.93;4.18;;;;;;;;;;5051725;28;20041;-63
2021/04/13 03:01:50;;;;;;;6.20;4.15;;;;;;;;;;5053421;28;20057;-63
2021/04/13 03:04:18;;;;;;;8.68;5.13;;;;;;;;;;5050542;28;20045;-62
2021/04/13 03:06:46;;;;;;;13.00;4.60;;;;;;;;;;5053458;28;20068;-64
2021/04/13 03:09:15;;;;;;;8.40;4.63;;;;;;;;;;5050955;28;20130;-63
2021/04/13 03:11:46;;;;;;;7.03;4.80;;;;;;;;;;5048277;28;20128;-63
2021/04/13 03:14:15;;;;;;;7.82;4.22;;;;;;;;;;5051369;28;20317;-63
2021/04/13 03:16:45;;;;;;;7.45;4.03;;;;;;;;;;5052992;28;20076;-63
2021/04/13 03:19:14;;;;;;;6.90;4.22;;;;;;;;;;5040286;28;20069;-63
2021/04/13 03:21:43;;;;;;;7.50;4.65;;;;;;;;;;5046775;28;20045;-63
2021/04/13 03:24:12;;;;;;;10.43;4.60;;;;;;;;;;5047127;28;20467;-63
2021/04/13 03:26:47;;;;;;;10.07;4.75;;;;;;;;;;5048802;28;20114;-62
2021/04/13 03:29:17;;;;;;;10.82;4.53;;;;;;;;;;5051299;28;20055;-62
2021/04/13 03:31:46;;;;;;;5.95;4.55;;;;;;;;;;5053222;28;20167;-62
2021/04/13 03:34:13;;;;;;;9.95;4.57;;;;;;;;;;5050861;28;20049;-62
2021/04/13 03:36:41;;;;;;;9.52;5.15;;;;;;;;;;5044472;28;20603;-62
2021/04/13 03:39:10;;;;;;;8.57;4.78;;;;;;;;;;5048070;28;20133;-62
2021/04/13 03:41:41;;;;;;;9.73;5.07;;;;;;;;;;5049572;28;20062;-62
2021/04/13 03:44:09;;;;;;;7.65;4.88;;;;;;;;;;5049360;28;20481;-62
2021/04/13 03:46:38;;;;;;;9.90;5.15;;;;;;;;;;5037123;28;20041;-62
2021/04/13 03:49:08;;;;;;;8.20;5.45;;;;;;;;;;5051343;28;20048;-62
2021/04/13 03:51:39;;;;;;;8.93;5.53;;;;;;;;;;5038057;28;20224;-62
2021/04/13 03:54:18;;;;;;;10.25;4.93;;;;;;;;;;5047638;28;20091;-62
2021/04/13 03:56:45;;;;;;;12.48;5.25;;;;;;;;;;5057628;28;20048;-62
2021/04/13 03:59:18;;;;;;;9.60;5.60;;;;;;;;;;5051016;28;20057;-61
2021/04/13 04:01:47;;;;;;;9.23;5.88;;;;;;;;;;5048454;28;20080;-62
2021/04/13 04:04:32;;;;;;;7.05;5.15;;;;;;;;;;2874746;28;10002487;-62
2021/04/13 04:07:03;;;;;;;9.65;5.20;;;;;;;;;;3300923;28;10001437;-62
2021/04/13 04:09:38;;;;;;;9.07;5.47;;;;;;;;;;5045974;28;20455;-62
2021/04/13 04:12:15;;;;;;;10.95;5.70;;;;;;;;;;5046855;28;20127;-61
2021/04/13 04:14:54;;;;;;;8.68;5.20;;;;;;;;;;5051220;28;20116;-62
2021/04/13 04:17:23;;;;;;;7.72;5.40;;;;;;;;;;5042183;28;20069;-62
2021/04/13 04:19:54;;;;;;;9.90;5.35;;;;;;;;;;5052424;28;20068;-62
2021/04/13 04:22:24;;;;;;;9.13;5.43;;;;;;;;;;5049992;28;20040;-62
2021/04/13 04:24:52;;;;;;;10.00;5.72;;;;;;;;;;5051848;28;20049;-62
2021/04/13 04:27:29;;;;;;;12.48;6.13;;;;;;;;;;5044802;28;20041;-62
2021/04/13 04:30:08;;;;;;;9.13;5.90;;;;;;;;;;5050752;28;20464;-62
2021/04/13 04:32:39;;;;;;;12.38;5.82;;;;;;;;;;5049894;28;20119;-62
2021/04/13 04:35:08;;;;;;;12.25;6.03;;;;;;;;;;5047885;28;20081;-63
2021/04/13 04:37:37;;;;;;;11.32;6.22;;;;;;;;;;5042254;28;20080;-63
2021/04/13 04:40:21;;;;;;;10.82;6.45;;;;;;;;;;5049926;28;20078;-63
2021/04/13 04:43:00;;;;;;;13.95;7.50;;;;;;;;;;5047747;28;20072;-63
2021/04/13 04:45:39;;;;;;;10.75;6.90;;;;;;;;;;5043864;28;20044;-62
2021/04/13 04:48:20;;;;;;;10.82;6.95;;;;;;;;;;5047676;28;20107;-63
2021/04/13 04:50:48;;;;;;;17.75;8.02;;;;;;;;;;5050299;28;20124;-63
2021/04/13 04:53:16;;;;;;;13.50;7.60;;;;;;;;;;5050249;28;20107;-63
2021/04/13 04:55:43;;;;;;;16.83;7.55;;;;;;;;;;5045369;28;20136;-63
2021/04/13 04:58:10;;;;;;;12.48;7.72;;;;;;;;;;5043644;28;20563;-64
2021/04/13 05:00:38;;;;;;;11.68;6.93;;;;;;;;;;5049357;28;20139;-63
2021/04/13 05:03:05;;;;;;;13.07;8.05;;;;;;;;;;5048596;28;20519;-63
2021/04/13 05:05:33;;;;;;;16.60;7.47;;;;;;;;;;5050322;28;20053;-63
2021/04/13 05:08:01;;;;;;;12.88;7.80;;;;;;;;;;5053865;28;20146;-63
2021/04/13 05:10:29;;;;;;;15.75;7.95;;;;;;;;;;5048912;28;20049;-63
2021/04/13 05:12:56;;;;;;;11.77;8.02;;;;;;;;;;5045858;28;20051;-63
2021/04/13 05:15:24;;;;;;;21.05;10.95;;;;;;;;;;5046586;28;20041;-63
2021/04/13 05:17:51;;;;;;;15.13;8.20;;;;;;;;;;5047332;28;20096;-63
2021/04/13 05:20:19;;;;;;;16.40;7.63;;;;;;;;;;5051539;28;20099;-63
2021/04/13 05:22:47;;;;;;;17.05;8.88;;;;;;;;;;5047314;28;20114;-63
2021/04/13 05:25:15;;;;;;;15.23;7.97;;;;;;;;;;5043728;28;20091;-63
2021/04/13 05:27:42;;;;;;;22.67;9.07;;;;;;;;;;5030466;28;20063;-63
2021/04/13 05:30:12;;;;;;;14.70;8.57;;;;;;;;;;5045277;28;20056;-63
2021/04/13 05:32:40;;;;;;;14.88;8.70;;;;;;;;;;5045783;28;20049;-63
2021/04/13 05:35:08;;;;;;;16.35;8.43;;;;;;;;;;5046656;28;20091;-63
2021/04/13 05:37:36;;;;;;;16.25;9.25;;;;;;;;;;5035186;28;20056;-63
2021/04/13 05:40:05;;;;;;;17.67;9.93;;;;;;;;;;5034604;28;20139;-63
2021/04/13 05:42:34;;;;;;;15.20;9.35;;;;;;;;;;5041226;28;20604;-63
2021/04/13 05:45:02;;;;;;;14.00;8.73;;;;;;;;;;5043753;28;20095;-63
2021/04/13 05:47:31;;;;;;;19.63;10.30;;;;;;;;;;5034015;28;20464;-63
2021/04/13 05:49:58;;;;;;;15.55;9.25;;;;;;;;;;5042406;28;20138;-64
2021/04/13 05:52:26;;;;;;;17.85;10.80;;;;;;;;;;5044541;28;20059;-64
2021/04/13 05:54:53;;;;;;;19.63;11.20;;;;;;;;;;5045413;28;20099;-63
2021/04/13 05:57:25;;;;;;;23.35;12.38;;;;;;;;;;5048627;28;20132;-64
2021/04/13 05:59:53;;;;;;;22.50;11.90;;;;;;;;;;5039182;28;20080;-64
2021/04/13 06:02:20;;;;;;;24.80;12.43;;;;;;;;;;5044168;28;20053;-64
2021/04/13 06:04:50;;;;;;;20.23;11.98;;;;;;;;;;5045941;28;20143;-63
2021/04/13 06:07:17;;;;;;;21.17;11.65;;;;;;;;;;5034572;28;20074;-64
2021/04/13 06:09:45;;;;;;;22.75;12.55;;;;;;;;;;5048165;28;20138;-63
2021/04/13 06:12:13;;;;;;;22.23;12.05;;;;;;;;;;5044203;28;20055;-64
2021/04/13 06:14:42;;;;;;;20.25;11.88;;;;;;;;;;5049049;28;20132;-64
2021/04/13 06:17:10;;;;;;;23.50;13.05;;;;;;;;;;5037995;28;20103;-64
2021/04/13 06:19:39;;;;;;;23.70;12.75;;;;;;;;;;5045327;28;20037;-64
2021/04/13 06:22:07;;;;;;;25.10;14.15;;;;;;;;;;5041236;28;20578;-64
2021/04/13 06:24:34;;;;;;;25.48;13.18;;;;;;;;;;5043607;28;20079;-63
2021/04/13 06:27:02;;;;;;;26.92;14.20;;;;;;;;;;5041067;28;20643;-63
2021/04/13 06:29:34;;;;;;;25.50;14.23;;;;;;;;;;5047918;28;20488;-62
2021/04/13 06:32:03;;;;;;;27.13;14.77;;;;;;;;;;5039204;28;20072;-62
2021/04/13 06:34:31;;;;;;;27.80;14.82;;;;;;;;;;5048247;28;20052;-62
2021/04/13 06:36:58;;;;;;;30.30;14.65;;;;;;;;;;5044987;28;20057;-63
2021/04/13 06:39:26;;;;;;;29.52;16.25;;;;;;;;;;5047095;28;20539;-62
2021/04/13 06:42:02;;;;;;;30.33;15.90;;;;;;;;;;5035851;28;20520;-62
2021/04/13 06:44:46;;;;;;;31.58;16.63;;;;;;;;;;5044857;28;20412;-63
2021/04/13 06:47:18;;;;;;;27.67;16.10;;;;;;;;;;5041680;28;20060;-63
2021/04/13 06:49:57;;;;;;;29.13;15.93;;;;;;;;;;5038387;28;20644;-62
2021/04/13 06:52:30;;;;;;;30.38;16.50;;;;;;;;;;5043577;28;20419;-63
2021/04/13 06:55:04;;;;;;;27.98;15.63;;;;;;;;;;5047674;28;20053;-63
2021/04/13 06:57:36;;;;;;;28.55;17.08;;;;;;;;;;5045204;28;20510;-64
2021/04/13 07:00:16;;;;;;;34.30;16.88;;;;;;;;;;5047352;28;20399;-64
2021/04/13 07:02:49;;;;;;;32.65;16.73;;;;;;;;;;5043052;28;20566;-64
2021/04/13 07:05:19;;;;;;;33.03;15.95;;;;;;;;;;5044597;28;20119;-61
2021/04/13 07:07:59;;;;;;;32.78;15.80;;;;;;;;;;5040712;28;20053;-64
2021/04/13 07:10:28;;;;;;;31.45;17.95;;;;;;;;;;5043210;28;20049;-64
2021/04/13 07:13:05;;;;;;;30.02;15.85;;;;;;;;;;5045840;28;20075;-64
2021/04/13 07:15:37;;;;;;;30.33;16.92;;;;;;;;;;5044466;28;20502;-64
2021/04/13 07:18:08;;;;;;;38.05;17.75;;;;;;;;;;5037345;28;20419;-64
2021/04/13 07:20:38;;;;;;;37.08;19.52;;;;;;;;;;5046589;28;20073;-64
2021/04/13 07:23:07;;;;;;;41.67;20.05;;;;;;;;;;5053801;28;20056;-64
2021/04/13 07:25:39;;;;;;;38.60;20.58;;;;;;;;;;5044440;28;20505;-64
2021/04/13 07:28:10;;;;;;;36.28;20.42;;;;;;;;;;5046549;28;20578;-64
2021/04/13 07:30:43;;;;;;;43.53;20.42;;;;;;;;;;5045927;28;20053;-65
2021/04/13 07:33:13;;;;;;;39.40;20.67;;;;;;;;;;5049834;28;20112;-65
2021/04/13 07:35:41;;;;;;;34.25;19.52;;;;;;;;;;5044591;28;20045;-64
2021/04/13 07:38:18;;;;;;;38.53;20.00;;;;;;;;;;5041172;28;20049;-64
2021/04/13 07:40:49;;;;;;;40.15;21.85;;;;;;;;;;5045120;28;20079;-63
2021/04/13 07:43:20;;;;;;;39.28;22.25;;;;;;;;;;5034727;28;20408;-63
2021/04/13 07:45:51;;;;;;;42.10;22.50;;;;;;;;;;5046496;28;20052;-63
2021/04/13 07:48:30;;;;;;;38.75;20.85;;;;;;;;;;5038027;28;20041;-63
2021/04/13 07:51:06;;;;;;;39.30;21.60;;;;;;;;;;5041819;28;20049;-63
2021/04/13 07:53:36;;;;;;;41.13;21.60;;;;;;;;;;5041097;28;20044;-63
2021/04/13 07:56:07;;;;;;;41.42;22.73;;;;;;;;;;5036786;28;20056;-63
2021/04/13 07:58:39;;;;;;;37.55;21.83;;;;;;;;;;5044221;28;20539;-63
2021/04/13 08:01:07;;;;;;;37.22;20.15;;;;;;;;;;5044794;28;20095;-63
2021/04/13 08:03:37;;;;;;;39.80;20.52;;;;;;;;;;5042853;28;20136;-63
2021/04/13 08:06:06;;;;;;;40.45;20.95;;;;;;;;;;5036065;28;20049;-62
2021/04/13 08:08:35;;;;;;;39.25;20.70;;;;;;;;;;5044108;28;20392;-63
2021/04/13 08:11:07;;;;;;;37.10;20.08;;;;;;;;;;5045421;28;20138;-63
2021/04/13 08:13:35;;;;;;;36.75;18.95;;;;;;;;;;5039990;28;20049;-63
2021/04/13 08:16:03;;;;;;;34.95;19.98;;;;;;;;;;5043689;28;20057;-63
2021/04/13 08:18:33;;;;;;;36.95;19.55;;;;;;;;;;5046181;28;20063;-64
2021/04/13 08:21:20;;;;;;;36.20;19.88;;;;;;;;;;5042223;28;20519;-64
2021/04/13 08:23:50;;;;;;;33.15;19.00;;;;;;;;;;5036477;28;20369;-64
2021/04/13 08:26:42;;;;;;;33.15;19.40;;;;;;;;;;5036465;28;20075;-64
2021/04/13 08:29:18;;;;;;;33.38;18.48;;;;;;;;;;5050248;28;20067;-64
2021/04/13 08:34:45;;;;;;;34.17;19.23;;;;;;;;;;5031561;28;20092;-64
2021/04/13 08:37:23;;;;;;;28.65;17.42;;;;;;;;;;5035976;28;20056;-64
2021/04/13 08:40:00;;;;;;;29.95;17.70;;;;;;;;;;5041743;28;20052;-64
2021/04/13 08:42:30;;;;;;;30.15;17.02;;;;;;;;;;5045360;28;20055;-63
2021/04/13 08:45:00;;;;;;;28.98;16.67;;;;;;;;;;5039901;28;20045;-64
2021/04/13 08:47:36;;;;;;;27.15;15.68;;;;;;;;;;5031453;28;20042;-64
2021/04/13 08:50:19;;;;;;;29.50;16.27;;;;;;;;;;5039490;28;20098;-64
2021/04/13 08:52:54;;;;;;;26.77;15.38;;;;;;;;;;5052855;28;20351;-62
2021/04/13 08:55:23;;;;;;;28.75;16.25;;;;;;;;;;5044572;28;20883;-62
2021/04/13 08:58:03;;;;;;;26.80;15.90;;;;;;;;;;5039958;28;20053;-63
2021/04/13 09:00:43;;;;;;;25.35;15.50;;;;;;;;;;5035199;28;20645;-63
2021/04/13 09:03:12;;;;;;;26.25;14.80;;;;;;;;;;5044327;28;20542;-63
2021/04/13 09:05:41;;;;;;;25.75;14.63;;;;;;;;;;5043949;28;20044;-63
2021/04/13 09:08:25;;;;;;;24.08;14.68;;;;;;;;;;5041172;28;20130;-64
2021/04/13 09:11:05;;;;;;;25.00;13.38;;;;;;;;;;5042462;28;20061;-64
2021/04/13 09:13:35;;;;;;;21.25;12.63;;;;;;;;;;5036729;28;20079;-63
2021/04/13 09:16:11;;;;;;;20.92;13.65;;;;;;;;;;5038248;28;20464;-64
2021/04/13 09:18:48;;;;;;;21.17;12.77;;;;;;;;;;5035517;28;20050;-63
2021/04/13 09:21:26;;;;;;;19.05;11.95;;;;;;;;;;5045933;28;20140;-63
2021/04/13 09:23:58;;;;;;;20.85;13.30;;;;;;;;;;5031986;28;20080;-63
2021/04/13 09:26:31;;;;;;;17.25;10.95;;;;;;;;;;5044136;28;20049;-63
2021/04/13 09:29:01;;;;;;;16.23;10.85;;;;;;;;;;5045158;28;20138;-64
2021/04/13 09:31:44;;;;;;;18.60;11.30;;;;;;;;;;5044978;28;20049;-63
2021/04/13 09:34:14;;;;;;;;;;;;;;;;;;5035873;28;20473;-63
2021/04/13 09:36:56;;;;;;;18.10;11.23;;;;;;;;;;5042969;28;19928;-63
2021/04/13 09:39:45;;;;;;;16.77;10.82;;;;;;;;;;5014473;28;20057;-63
2021/04/13 09:42:26;;;;;;;18.25;11.38;;;;;;;;;;5030878;28;20515;-63
2021/04/13 09:45:08;;;;;;;22.80;10.15;;;;;;;;;;5038498;28;20136;-63
2021/04/13 09:47:48;;;;;;;16.10;10.38;;;;;;;;;;5037989;28;20049;-63
2021/04/13 09:50:21;;;;;;;14.40;10.27;;;;;;;;;;5036477;28;20063;-63
2021/04/13 09:53:11;;;;;;;15.50;10.45;;;;;;;;;;5042310;28;20053;-63
2021/04/13 09:55:46;;;;;;;16.45;9.18;;;;;;;;;;5000325;28;20045;-63
2021/04/13 09:58:32;;;;;;;15.30;9.77;;;;;;;;;;5043849;28;20115;-63
2021/04/13 10:01:16;;;;;;;17.52;9.48;;;;;;;;;;5041414;28;20049;-63
2021/04/13 10:03:58;;;;;;;12.30;9.13;;;;;;;;;;5040798;28;20456;-64
2021/04/13 10:06:29;;;;;;;14.45;8.88;;;;;;;;;;5026618;28;20516;-62
2021/04/13 10:09:03;;;;;;;15.90;9.45;;;;;;;;;;5041342;28;20099;-63
2021/04/13 10:11:50;;;;;;;13.05;9.20;;;;;;;;;;5045763;28;20064;-63
2021/04/13 10:14:38;;;;;;;15.02;9.13;;;;;;;;;;5037867;28;20049;-62
2021/04/13 10:17:09;;;;;;;15.85;8.88;;;;;;;;;;5010788;28;20088;-63
2021/04/13 10:19:47;;;;;;;13.00;8.35;;;;;;;;;;5039853;28;20126;-63
2021/04/13 10:22:33;;;;;;;9.90;7.53;;;;;;;;;;5032326;28;20052;-62
2021/04/13 10:25:23;;;;;;;12.68;7.00;;;;;;;;;;5044382;28;20073;-63
2021/04/13 10:28:06;;;;;;;12.95;7.10;;;;;;;;;;5038144;28;20049;-63
2021/04/13 10:30:52;;;;;;;10.65;6.97;;;;;;;;;;5042497;28;20049;-63
2021/04/13 10:33:40;;;;;;;13.00;7.88;;;;;;;;;;5041485;28;20142;-62
2021/04/13 10:36:26;;;;;;;12.07;7.55;;;;;;;;;;5035230;28;20053;-63
2021/04/13 10:39:15;;;;;;;12.68;7.80;;;;;;;;;;5041831;28;20054;-62
2021/04/13 10:42:02;;;;;;;12.63;7.78;;;;;;;;;;5044774;28;20053;-62
2021/04/13 10:44:56;;;;;;;10.18;7.88;;;;;;;;;;5030353;28;20049;-63
2021/04/13 10:47:38;;;;;;;10.18;7.78;;;;;;;;;;5030100;28;20522;-63
2021/04/13 10:50:24;;;;;;;8.70;6.88;;;;;;;;;;5046186;28;20061;-63
2021/04/13 10:53:07;;;;;;;12.13;7.45;;;;;;;;;;5047232;28;20048;-63
2021/04/13 10:55:37;;;;;;;9.05;7.20;;;;;;;;;;5048934;28;20045;-63
2021/04/13 10:58:11;;;;;;;10.50;7.10;;;;;;;;;;5043377;28;20060;-63
2021/04/13 11:00:42;;;;;;;8.63;6.95;;;;;;;;;;5036118;28;20940;-63
2021/04/13 11:03:31;;;;;;;7.10;6.03;;;;;;;;;;5043199;28;20049;-63
2021/04/13 11:06:17;;;;;;;8.38;6.15;;;;;;;;;;5040387;28;20085;-63
2021/04/13 11:09:07;;;;;;;8.07;5.35;;;;;;;;;;5043106;28;20462;-63
2021/04/13 11:11:49;;;;;;;7.40;4.97;;;;;;;;;;5043305;28;20489;-64
2021/04/13 11:14:35;;;;;;;8.35;5.53;;;;;;;;;;5046015;28;20495;-63
2021/04/13 11:17:21;;;;;;;11.15;6.65;;;;;;;;;;5015898;28;20057;-64
2021/04/13 11:20:01;;;;;;;9.20;6.50;;;;;;;;;;5043984;28;20087;-64
2021/04/13 11:22:47;;;;;;;12.45;6.82;;;;;;;;;;5043750;28;20140;-64
2021/04/13 11:25:29;;;;;;;11.40;5.60;;;;;;;;;;5043255;28;20411;-64
2021/04/13 11:28:06;;;;;;;9.82;6.18;;;;;;;;;;5040677;28;20045;-63
2021/04/13 11:30:49;;;;;;;7.82;5.50;;;;;;;;;;5048084;28;20562;-63
2021/04/13 11:33:28;;;;;;;7.72;5.53;;;;;;;;;;5047742;28;20068;-63
2021/04/13 11:36:00;;;;;;;8.02;5.55;;;;;;;;;;5049199;28;20045;-62
2021/04/13 11:38:43;;;;;;;7.05;4.78;;;;;;;;;;5044978;28;20061;-62
2021/04/13 11:41:16;;;;;;;7.43;4.80;;;;;;;;;;5041311;28;20049;-62
2021/04/13 11:43:49;;;;;;;6.20;4.97;;;;;;;;;;5038942;28;20441;-63
2021/04/13 11:46:22;;;;;;;7.55;5.57;;;;;;;;;;5043207;28;20460;-64
2021/04/13 11:48:52;;;;;;;7.30;5.45;;;;;;;;;;5040859;28;20063;-64
2021/04/13 11:51:22;;;;;;;7.68;6.07;;;;;;;;;;5047331;28;20497;-64
2021/04/13 11:53:51;;;;;;;10.10;6.03;;;;;;;;;;5040866;28;20041;-64
2021/04/13 11:56:35;;;;;;;9.00;5.90;;;;;;;;;;5047456;28;20080;-64
2021/04/13 11:59:26;;;;;;;7.47;5.30;;;;;;;;;;5046906;28;20060;-64
2021/04/13 12:01:57;;;;;;;7.95;5.32;;;;;;;;;;5038609;28;20052;-63
2021/04/13 12:04:27;;;;;;;7.25;4.80;;;;;;;;;;5044272;28;20052;-64
2021/04/13 12:06:57;;;;;;;6.07;4.13;;;;;;;;;;5046350;28;20060;-64
2021/04/13 12:09:42;;;;;;;5.78;4.15;;;;;;;;;;5045007;28;20651;-64
2021/04/13 12:12:24;;;;;;;7.93;4.70;;;;;;;;;;5043442;28;20049;-64
2021/04/13 12:14:53;;;;;;;7.18;4.13;;;;;;;;;;5043345;28;20057;-64
2021/04/13 12:17:31;;;;;;;7.28;4.45;;;;;;;;;;5032404;28;20696;-64
2021/04/13 12:20:18;;;;;;;8.57;4.40;;;;;;;;;;5035179;28;20519;-64
2021/04/13 12:22:46;;;;;;;7.80;4.30;;;;;;;;;;5045635;28;20492;-63
2021/04/13 12:25:33;;;;;;;8.38;5.15;;;;;;;;;;5045367;28;20049;-63
2021/04/13 12:28:03;;;;;;;6.72;4.47;;;;;;;;;;5041449;28;20114;-63
2021/04/13 12:30:36;;;;;;;8.43;4.68;;;;;;;;;;5042570;28;20120;-63
2021/04/13 12:33:04;;;;;;;8.23;5.05;;;;;;;;;;5048013;28;20114;-63
2021/04/13 12:35:53;;;;;;;7.95;5.20;;;;;;;;;;5045763;28;20569;-64
2021/04/13 12:38:38;;;;;;;11.60;4.72;;;;;;;;;;5044521;28;20045;-63
2021/04/13 12:41:11;;;;;;;13.80;5.00;;;;;;;;;;5043373;28;20060;-63
2021/04/13 12:43:43;;;;;;;6.57;3.63;;;;;;;;;;5037102;28;20068;-63
2021/04/13 12:46:24;;;;;;;14.57;4.78;;;;;;;;;;5039526;28;20130;-64
2021/04/13 12:48:52;;;;;;;7.80;4.35;;;;;;;;;;5033474;28;20171;-64
2021/04/13 12:51:28;;;;;;;6.45;4.40;;;;;;;;;;5060974;28;20056;-64
2021/04/13 12:54:13;;;;;;;8.40;3.90;;;;;;;;;;5040698;28;20639;-64
2021/04/13 12:56:41;;;;;;;6.07;4.03;;;;;;;;;;5042501;28;20519;-63
2021/04/13 12:59:11;;;;;;;6.80;4.10;;;;;;;;;;5036766;28;20459;-63
2021/04/13 13:01:42;;;;;;;6.45;4.32;;;;;;;;;;5039824;28;20059;-63
2021/04/13 13:04:13;;;;;;;6.60;3.78;;;;;;;;;;5041736;28;20147;-64
2021/04/13 13:06:43;;;;;;;5.43;4.10;;;;;;;;;;5041244;28;20068;-64
2021/04/13 13:09:17;;;;;;;5.70;3.78;;;;;;;;;;5034989;28;20419;-63
2021/04/13 13:11:45;;;;;;;6.25;3.83;;;;;;;;;;5041324;28;20494;-63
2021/04/13 13:14:14;;;;;;;5.72;3.75;;;;;;;;;;5042883;28;20048;-64
2021/04/13 13:16:44;;;;;;;6.07;3.90;;;;;;;;;;5044789;28;20053;-63
2021/04/13 13:19:25;;;;;;;5.28;3.83;;;;;;;;;;5034785;28;20514;-63
2021/04/13 13:21:54;;;;;;;4.70;3.35;;;;;;;;;;5043796;28;20115;-63
2021/04/13 13:24:26;;;;;;;5.28;3.50;;;;;;;;;;5044284;28;20072;-64
2021/04/13 13:26:54;;;;;;;5.57;3.70;;;;;;;;;;5043630;28;20630;-64
2021/04/13 13:29:22;;;;;;;7.53;4.10;;;;;;;;;;5034643;28;20056;-64
2021/04/13 13:31:51;;;;;;;5.60;4.35;;;;;;;;;;5025886;28;20050;-64
2021/04/13 13:34:21;;;;;;;5.20;4.05;;;;;;;;;;5046518;28;20144;-64
2021/04/13 13:36:50;;;;;;;5.93;4.07;;;;;;;;;;5033681;28;20048;-63
2021/04/13 13:39:19;;;;;;;7.60;4.13;;;;;;;;;;5043608;28;20062;-63
2021/04/13 13:41:48;;;;;;;5.70;3.97;;;;;;;;;;5024587;28;20493;-63
2021/04/13 13:44:22;;;;;;;6.13;4.25;;;;;;;;;;5041774;28;20052;-64
2021/04/13 13:47:02;;;;;;;6.53;4.15;;;;;;;;;;5043802;28;20055;-64
2021/04/13 13:49:37;;;;;;;5.30;4.20;;;;;;;;;;5040603;28;20041;-64
2021/04/13 13:52:06;;;;;;;8.40;4.63;;;;;;;;;;5043258;28;20088;-63
2021/04/13 13:55:05;;;;;;;6.90;4.80;;;;;;;;;;5040397;28;20056;-63
2021/04/13 13:58:01;;;;;;;7.90;5.25;;;;;;;;;;5034606;28;20063;-64
2021/04/13 14:00:48;;;;;;;13.48;6.10;;;;;;;;;;5031264;28;20057;-64
2021/04/13 14:03:17;;;;;;;10.40;6.13;;;;;;;;;;5041598;28;20264;-64
2021/04/13 14:05:48;;;;;;;9.80;5.40;;;;;;;;;;5035615;28;20047;-63
2021/04/13 14:08:17;;;;;;;10.45;5.45;;;;;;;;;;5029028;28;20144;-63
2021/04/13 14:10:45;;;;;;;13.57;6.15;;;;;;;;;;5043998;28;20462;-64
2021/04/13 14:13:15;;;;;;;8.27;5.85;;;;;;;;;;5042199;28;20500;-64
2021/04/13 14:15:44;;;;;;;9.88;6.57;;;;;;;;;;5043823;28;20136;-64
2021/04/13 14:18:14;;;;;;;8.23;5.70;;;;;;;;;;5040793;28;20064;-63
2021/04/13 14:21:07;;;;;;;9.48;6.32;;;;;;;;;;5044307;28;20075;-63
2021/04/13 14:23:35;;;;;;;9.10;5.43;;;;;;;;;;5038554;28;20520;-63
2021/04/13 14:26:14;;;;;;;8.75;5.15;;;;;;;;;;5038459;28;20057;-63
2021/04/13 14:28:42;;;;;;;7.90;5.57;;;;;;;;;;5034600;28;20052;-63
2021/04/13 14:31:28;;;;;;;9.35;5.78;;;;;;;;;;5050638;28;20045;-63
2021/04/13 14:33:56;;;;;;;9.57;5.72;;;;;;;;;;5048541;28;20053;-63
2021/04/13 14:36:25;;;;;;;9.88;6.63;;;;;;;;;;5039630;28;20501;-63
2021/04/13 14:38:53;;;;;;;11.13;6.72;;;;;;;;;;5042871;28;20053;-63
2021/04/13 14:41:21;;;;;;;10.68;6.47;;;;;;;;;;5045755;28;20126;-63
2021/04/13 14:43:49;;;;;;;13.60;6.68;;;;;;;;;;5043360;28;20107;-63
2021/04/13 14:46:17;;;;;;;10.10;6.68;;;;;;;;;;5034719;28;20080;-63
2021/04/13 14:48:45;;;;;;;9.82;6.43;;;;;;;;;;5033334;28;20119;-63
2021/04/13 14:51:13;;;;;;;12.48;7.50;;;;;;;;;;5036142;28;20053;-63
2021/04/13 14:53:42;;;;;;;12.57;7.50;;;;;;;;;;5033312;28;20053;-63
2021/04/13 14:56:11;;;;;;;11.18;6.93;;;;;;;;;;5048486;28;20154;-63
2021/04/13 14:58:39;;;;;;;11.38;6.90;;;;;;;;;;5037803;28;20049;-62
2021/04/13 15:01:07;;;;;;;10.65;6.32;;;;;;;;;;5042365;28;20045;-63
2021/04/13 15:03:36;;;;;;;10.98;7.22;;;;;;;;;;5041852;28;20049;-62
2021/04/13 15:06:04;;;;;;;9.80;7.22;;;;;;;;;;5047780;28;20052;-63
2021/04/13 15:08:34;;;;;;;10.70;6.97;;;;;;;;;;5042173;28;20048;-63
2021/04/13 15:11:03;;;;;;;13.65;7.90;;;;;;;;;;5044552;28;20079;-63